TimeCST,TemperatureF,Dew PointF,Humidity,Sea Level PressureIn,VisibilityMPH,Wind Direction,Wind SpeedMPH,Gust SpeedMPH,PrecipitationIn,Events,Conditions,WindDirDegrees,DateUTC
12:53 AM,9.0,1.9,73,30.24,10.0,East,3.5,-,N/A,,Overcast,100,2012-01-21 06:53:00
1:53 AM,6.8,1.4,79,30.16,10.0,NE,6.9,-,N/A,,Overcast,40,2012-01-21 07:53:00
2:14 AM,6.8,-0.4,72,30.17,10.0,ENE,3.5,-,N/A,,Scattered Clouds,60,2012-01-21 08:14:00
2:53 AM,5.0,-0.0,80,30.25,10.0,SE,3.5,-,N/A,,Clear,130,2012-01-21 08:53:00
3:45 AM,6.8,-0.4,72,30.13,10.0,Calm,Calm,-,N/A,,Mostly Cloudy,0,2012-01-21 09:45:00
3:53 AM,6.1,-0.0,76,30.22,10.0,Calm,Calm,-,N/A,,Mostly Cloudy,0,2012-01-21 09:53:00
4:53 AM,8.1,1.9,76,30.19,10.0,SE,6.9,-,N/A,,Overcast,130,2012-01-21 10:53:00
5:21 AM,6.8,1.4,79,30.09,10.0,SE,6.9,-,N/A,,Overcast,140,2012-01-21 11:21:00
5:53 AM,7.0,1.0,77,30.17,10.0,SE,8.1,-,N/A,,Mostly Cloudy,130,2012-01-21 11:53:00
6:07 AM,6.8,-0.4,72,30.06,10.0,SE,8.1,-,N/A,,Scattered Clouds,140,2012-01-21 12:07:00
6:53 AM,6.8,-0.4,72,30.05,10.0,SSE,8.1,-,N/A,,Clear,160,2012-01-21 12:53:00
7:53 AM,7.0,1.0,77,30.16,10.0,SSE,8.1,-,N/A,,Clear,160,2012-01-21 13:53:00
8:53 AM,9.0,1.9,73,30.15,10.0,South,11.5,-,N/A,,Clear,170,2012-01-21 14:53:00
9:53 AM,14.0,3.0,62,30.12,10.0,South,12.7,-,N/A,,Clear,170,2012-01-21 15:53:00
10:53 AM,18.0,3.9,54,30.09,10.0,South,16.1,-,N/A,,Clear,170,2012-01-21 16:53:00
11:53 AM,21.9,6.1,51,30.01,10.0,South,18.4,-,N/A,,Clear,170,2012-01-21 17:53:00
12:53 PM,27.0,7.0,43,29.93,10.0,South,19.6,26.5,N/A,,Clear,170,2012-01-21 18:53:00
1:53 PM,28.0,8.1,43,29.90,10.0,South,23.0,27.6,N/A,,Clear,170,2012-01-21 19:53:00
2:53 PM,30.0,9.0,41,29.84,10.0,SSE,21.9,28.8,N/A,,Clear,150,2012-01-21 20:53:00
3:53 PM,28.9,10.0,45,29.80,10.0,SSE,21.9,29.9,N/A,,Clear,150,2012-01-21 21:53:00
4:53 PM,28.0,12.0,51,29.76,10.0,SSE,21.9,28.8,N/A,,Clear,160,2012-01-21 22:53:00
5:53 PM,25.0,14.0,63,29.72,10.0,SSE,20.7,32.2,N/A,,Clear,150,2012-01-21 23:53:00
6:53 PM,25.0,15.1,66,29.73,10.0,SSE,16.1,25.3,N/A,,Clear,160,2012-01-22 00:53:00
7:53 PM,25.0,15.1,66,29.70,10.0,SSE,19.6,28.8,N/A,,Clear,160,2012-01-22 01:53:00
8:53 PM,25.0,15.1,66,29.65,10.0,SSE,18.4,25.3,N/A,,Clear,150,2012-01-22 02:53:00
9:53 PM,25.0,16.0,69,29.60,10.0,SSE,16.1,27.6,N/A,,Clear,150,2012-01-22 03:53:00
10:53 PM,25.0,17.1,72,29.55,10.0,SSE,18.4,29.9,N/A,,Clear,160,2012-01-22 04:53:00
11:53 PM,25.0,17.1,72,29.54,10.0,SSE,16.1,28.8,N/A,,Clear,160,2012-01-22 05:53:00